createdAt,value
2023-02-25T00:03:59.508Z,2.98
2023-02-25T00:09:07.269Z,2.94
2023-02-25T00:14:12.625Z,2.97
2023-02-25T00:19:17.765Z,2.92
2023-02-25T00:24:27.185Z,2.94
2023-02-25T00:29:33.066Z,2.95
2023-02-25T00:34:38.393Z,2.92
2023-02-25T00:39:46.027Z,2.96
2023-02-25T00:44:52.510Z,3.09
2023-02-25T00:49:57.424Z,2.99
2023-02-25T00:55:05.373Z,3.01
2023-02-25T01:00:16.331Z,2.95
2023-02-25T01:05:21.396Z,3.03
2023-02-25T01:10:31.478Z,2.92
2023-02-25T01:15:36.552Z,2.89
2023-02-25T01:20:44.702Z,2.89
2023-02-25T01:25:52.248Z,2.91
2023-02-25T01:30:59.295Z,3.07
2023-02-25T01:36:04.888Z,2.95
2023-02-25T01:41:20.200Z,3.03
2023-02-25T01:46:25.615Z,3.05
2023-02-25T01:51:31.950Z,3.12
2023-02-25T01:56:45.568Z,3.10
2023-02-25T02:01:52.703Z,2.87
2023-02-25T02:06:58.519Z,2.89
2023-02-25T02:12:08.783Z,3.02
2023-02-25T02:17:23.459Z,2.98
2023-02-25T02:22:36.316Z,3.06
2023-02-25T02:28:14.169Z,3.13
2023-02-25T02:33:28.907Z,3.02
2023-02-25T02:38:40.260Z,3.06
2023-02-25T02:43:53.826Z,3.15
2023-02-25T02:49:09.183Z,3.02
2023-02-25T02:54:16.970Z,3.06
2023-02-25T02:59:28.087Z,2.94
2023-02-25T03:04:40.403Z,2.98
2023-02-25T03:09:49.743Z,2.86
2023-02-25T03:14:56.580Z,2.91
2023-02-25T03:20:13.595Z,2.77
2023-02-25T03:25:23.397Z,2.71
2023-02-25T03:30:34.534Z,2.72
2023-02-25T03:35:44.045Z,2.60
2023-02-25T03:40:54.355Z,2.79
2023-02-25T03:46:03.193Z,2.61
2023-02-25T03:51:12.052Z,2.62
2023-02-25T03:56:20.648Z,2.68
2023-02-25T04:01:31.281Z,2.56
2023-02-25T04:06:39.710Z,2.55
2023-02-25T04:11:44.668Z,2.62
2023-02-25T04:16:49.633Z,2.47
2023-02-25T04:21:57.625Z,2.30
2023-02-25T04:27:03.473Z,2.16
2023-02-25T04:32:09.902Z,2.16
2023-02-25T04:37:19.865Z,2.03
2023-02-25T04:42:24.819Z,1.99
2023-02-25T04:47:29.799Z,2.09
2023-02-25T04:52:37.949Z,2.01
2023-02-25T04:57:44.092Z,2.06
2023-02-25T05:02:51.484Z,2.02
2023-02-25T05:08:01.341Z,1.97
2023-02-25T05:13:06.336Z,2.08
2023-02-25T05:18:11.297Z,1.97
2023-02-25T05:23:18.844Z,1.88
2023-02-25T05:28:24.275Z,1.79
2023-02-25T05:33:30.256Z,1.79
2023-02-25T05:38:38.273Z,1.87
2023-02-25T05:43:46.077Z,1.82
2023-02-25T05:48:51.212Z,1.70
2023-02-25T05:54:00.551Z,1.70
2023-02-25T05:59:05.471Z,1.61
2023-02-25T06:04:10.413Z,1.58
2023-02-25T06:09:18.934Z,1.53
2023-02-25T06:14:24.027Z,1.49
2023-02-25T06:19:29.478Z,1.46
2023-02-25T06:24:40.727Z,1.47
2023-02-25T06:29:45.852Z,1.38
2023-02-25T06:34:53.877Z,1.43
2023-02-25T06:40:01.882Z,1.37
2023-02-25T06:45:08.026Z,1.40
2023-02-25T06:50:17.824Z,1.39
2023-02-25T06:55:27.103Z,1.50
2023-02-25T07:00:34.487Z,1.60
2023-02-25T07:05:39.624Z,1.43
2023-02-25T07:10:51.651Z,1.48
2023-02-25T07:15:56.695Z,1.55
2023-02-25T07:21:03.813Z,1.50
2023-02-25T07:26:13.397Z,1.65
2023-02-25T07:31:25.954Z,1.64
2023-02-25T07:36:33.234Z,1.58
2023-02-25T07:41:41.162Z,1.59
2023-02-25T07:46:49.269Z,1.71
2023-02-25T07:51:56.880Z,1.78
2023-02-25T07:57:05.707Z,1.73
2023-02-25T08:02:11.468Z,1.87
2023-02-25T08:07:17.964Z,1.93
2023-02-25T08:12:25.563Z,1.85
2023-02-25T08:17:32.561Z,1.74
2023-02-25T08:22:38.740Z,1.74
2023-02-25T08:27:49.456Z,1.71
2023-02-25T08:32:54.665Z,1.70
2023-02-25T08:37:59.724Z,1.70
2023-02-25T08:43:07.250Z,1.67
2023-02-25T08:48:13.688Z,1.81
2023-02-25T08:53:21.412Z,1.78
2023-02-25T08:58:30.200Z,1.90
2023-02-25T09:03:38.984Z,1.92
2023-02-25T09:08:43.998Z,1.89
2023-02-25T09:13:52.025Z,1.86
2023-02-25T09:18:56.891Z,1.90
2023-02-25T09:24:01.934Z,2.11
2023-02-25T09:29:10.046Z,2.19
2023-02-25T09:34:15.989Z,2.25
2023-02-25T09:39:23.212Z,2.10
2023-02-25T09:44:33.826Z,2.07
2023-02-25T09:49:44.073Z,2.16
2023-02-25T09:54:51.109Z,1.87
2023-02-25T09:59:58.742Z,2.23
2023-02-25T10:05:23.971Z,2.04
2023-02-25T10:10:38.060Z,2.21
2023-02-25T10:15:56.678Z,1.84
2023-02-25T10:21:13.746Z,1.86
2023-02-25T10:26:22.684Z,2.20
2023-02-25T10:31:34.473Z,2.36
2023-02-25T10:36:45.720Z,1.99
2023-02-25T10:41:50.841Z,1.99
2023-02-25T10:47:01.872Z,1.64
2023-02-25T10:52:10.394Z,1.90
2023-02-25T10:57:20.476Z,1.48
2023-02-25T11:02:30.428Z,1.71
2023-02-25T11:07:37.751Z,1.71
2023-02-25T11:12:45.163Z,1.58
2023-02-25T11:17:52.652Z,1.72
2023-02-25T11:23:03.820Z,1.58
2023-02-25T11:28:20.634Z,1.52
2023-02-25T11:33:33.903Z,1.70
2023-02-25T11:38:40.425Z,1.60
2023-02-25T11:43:45.314Z,1.54
2023-02-25T11:49:00.097Z,1.68
2023-02-25T11:54:25.649Z,1.63
2023-02-25T11:59:40.486Z,1.89
2023-02-25T12:05:24.137Z,2.14
2023-02-25T12:10:58.605Z,2.00
2023-02-25T12:16:44.470Z,2.00
2023-02-25T12:22:22.696Z,2.02
2023-02-25T12:28:03.518Z,2.13
2023-02-25T12:33:26.758Z,2.03
2023-02-25T12:39:09.979Z,1.41
2023-02-25T12:44:44.063Z,1.35
2023-02-25T12:50:20.300Z,1.35
2023-02-25T12:55:45.917Z,1.84
2023-02-25T13:01:23.317Z,1.94
2023-02-25T13:06:58.137Z,1.89
2023-02-25T13:12:25.948Z,2.09
2023-02-25T13:18:03.911Z,2.38
2023-02-25T13:23:25.618Z,1.98
2023-02-25T13:28:49.290Z,2.04
2023-02-25T13:34:04.641Z,2.16
2023-02-25T13:39:48.291Z,2.00
2023-02-25T13:45:32.300Z,1.96
2023-02-25T13:50:54.300Z,2.37
2023-02-25T13:56:32.245Z,2.22
2023-02-25T14:01:50.118Z,1.76
2023-02-25T14:07:27.687Z,2.07
2023-02-25T14:12:47.101Z,2.13
2023-02-25T14:18:06.276Z,1.98
2023-02-25T14:23:20.020Z,2.02
2023-02-25T14:28:34.396Z,2.04
2023-02-25T14:33:57.803Z,2.08
2023-02-25T14:39:23.787Z,1.90
2023-02-25T14:44:37.229Z,1.54
2023-02-25T14:49:53.651Z,1.51
2023-02-25T14:55:24.904Z,1.62
2023-02-25T15:01:01.053Z,1.62
2023-02-25T15:06:35.325Z,1.64
2023-02-25T15:12:01.998Z,1.87
2023-02-25T15:17:29.370Z,2.04
2023-02-25T15:22:37.618Z,1.53
2023-02-25T15:27:52.482Z,1.45
2023-02-25T15:33:16.064Z,1.52
2023-02-25T15:38:43.417Z,1.89
2023-02-25T15:43:50.727Z,1.00
2023-02-25T15:49:07.572Z,1.38
2023-02-25T15:54:51.230Z,0.86
2023-02-25T16:00:02.740Z,1.05
2023-02-25T16:05:24.161Z,1.52
2023-02-25T16:10:38.111Z,1.45
2023-02-25T16:15:48.794Z,1.25
2023-02-25T16:20:56.300Z,1.23
2023-02-25T16:26:11.313Z,1.08
2023-02-25T16:31:22.995Z,1.27
2023-02-25T16:36:36.783Z,1.32
2023-02-25T16:41:44.917Z,1.11
2023-02-25T16:46:53.961Z,1.15
2023-02-25T16:51:59.785Z,1.30
2023-02-25T16:57:22.652Z,1.44
2023-02-25T17:02:28.162Z,1.07
2023-02-25T17:07:33.558Z,1.33
2023-02-25T17:12:45.756Z,1.54
2023-02-25T17:17:55.109Z,1.26
2023-02-25T17:23:05.170Z,1.45
2023-02-25T17:28:23.378Z,1.27
2023-02-25T17:33:32.151Z,1.24
2023-02-25T17:38:39.115Z,1.26
2023-02-25T17:43:46.879Z,0.95
2023-02-25T17:48:57.353Z,0.98
2023-02-25T17:54:06.219Z,0.71
2023-02-25T17:59:38.944Z,0.98
2023-02-25T18:04:45.471Z,1.19
2023-02-25T18:09:51.134Z,0.61
2023-02-25T18:15:01.684Z,0.60
2023-02-25T18:20:26.821Z,0.73
2023-02-25T18:25:34.796Z,0.94
2023-02-25T18:30:45.114Z,0.84
2023-02-25T18:35:51.396Z,0.86
2023-02-25T18:40:57.373Z,0.76
2023-02-25T18:46:04.867Z,1.21
2023-02-25T18:51:18.285Z,1.00
2023-02-25T18:56:23.719Z,0.91
2023-02-25T19:01:35.441Z,1.08
2023-02-25T19:06:40.464Z,1.11
2023-02-25T19:11:45.394Z,0.91
2023-02-25T19:16:52.990Z,1.01
2023-02-25T19:22:00.394Z,0.83
2023-02-25T19:27:05.437Z,0.84
2023-02-25T19:32:16.769Z,1.13
2023-02-25T19:37:23.168Z,0.85
2023-02-25T19:42:28.393Z,0.97
2023-02-25T19:47:36.160Z,0.88
2023-02-25T19:52:41.628Z,0.59
2023-02-25T19:57:47.472Z,0.89
2023-02-25T20:02:56.456Z,0.79
2023-02-25T20:08:01.407Z,1.08
2023-02-25T20:13:06.469Z,0.69
2023-02-25T20:18:14.066Z,0.65
2023-02-25T20:23:18.996Z,0.89
2023-02-25T20:28:24.175Z,0.64
2023-02-25T20:33:31.747Z,0.56
2023-02-25T20:38:41.286Z,0.68
2023-02-25T20:43:46.463Z,0.66
2023-02-25T20:48:54.250Z,0.53
2023-02-25T20:53:59.578Z,0.63
2023-02-25T20:59:04.992Z,0.64
2023-02-25T21:04:12.694Z,0.56
2023-02-25T21:09:18.001Z,0.72
2023-02-25T21:14:23.415Z,0.46
2023-02-25T21:19:31.591Z,0.68
2023-02-25T21:24:36.979Z,0.34
2023-02-25T21:29:42.073Z,0.54
2023-02-25T21:34:49.948Z,0.27
2023-02-25T21:39:55.216Z,0.31
2023-02-25T21:45:01.686Z,0.42
2023-02-25T21:50:15.961Z,0.34
2023-02-25T21:55:21.593Z,0.42
2023-02-25T22:00:26.572Z,0.17
2023-02-25T22:05:34.270Z,0.40
2023-02-25T22:10:40.078Z,0.36
2023-02-25T22:15:49.944Z,0.54
2023-02-25T22:21:06.397Z,0.38
2023-02-25T22:26:12.903Z,0.71
2023-02-25T22:31:21.573Z,0.75
2023-02-25T22:36:29.485Z,0.83
2023-02-25T22:41:34.734Z,0.71
2023-02-25T22:46:41.538Z,0.70
2023-02-25T22:51:50.543Z,0.67
2023-02-25T22:56:55.428Z,0.94
2023-02-25T23:02:00.632Z,0.64
2023-02-25T23:07:08.312Z,0.82
2023-02-25T23:12:13.235Z,0.46
2023-02-25T23:17:18.434Z,0.93
2023-02-25T23:22:29.208Z,0.97
2023-02-25T23:27:35.324Z,0.80
2023-02-25T23:32:41.135Z,0.41
2023-02-25T23:37:48.851Z,0.77
2023-02-25T23:42:53.743Z,0.67
2023-02-25T23:47:58.899Z,0.72
2023-02-25T23:53:06.382Z,0.70
2023-02-25T23:58:11.454Z,0.60
